Архив погоды в Вайда-Губе

Метеограмма Вайда-Губа
Понедельник, 24 Сентября
Время местн. Темп Ветер Видим Явления Облачность нижн/средн/верх Атм. давл. Влжн Точка росы ВНГО R Сост. почвы Tg s
Напр Скр Прв ур.ст ур.м изм
03:00 +7.4° Ю 5 8 20 км - облачно с прояснениями 736 737 +0.1 80% +4.2° - - - - -
00:00 +8.2° Ю 7 9 20 км - незначительная облачность 736 737 -0.1 80% +5° - - - - -
Воскресенье, 23 Сентября
Время местн. Темп Ветер Видим Явления Облачность нижн/средн/верх Атм. давл. Влжн Точка росы ВНГО R Сост. почвы Tg s
Напр Скр Прв ур.ст ур.м изм
21:00 +9.4° Ю 6 8 20 км - переменная облачность 736 737 +0.2 73% +4.9° 600 м 0 - - -
18:00 +11.3° Ю 10 14 20 км - преимущественно облачно 736 737 +0.2 65% +5° 200 м - - - -
15:00 +12.2° Ю 10 15 20 км - преимущественно облачно 736 737 +0.8 63% +5.4° 200 м - - - -
12:00 +11.9° Ю 11 15 20 км - преимущественно облачно 735 736 -0.4 66% +5.7° 200 м - - - -
09:00 +10.6° Ю 10 12 20 км - преимущественно облачно 736 736 +0.2 74% +6.2° 600 м 0.5 Влажная (без луж) - -
06:00 +9.8° Ю 7 9 20 км - переменная облачность 735 736 -0.1 79% +6.3° 600 м - - - -
03:00 +10.3° Ю 10 13 10 км дымка {ливневые осадки} переменная облачность 735 736 -0.8 81% +7.2° 600 м - - - -
00:00 +10.3° Ю 10 12 10 км дымка {ливневые осадки} переменная облачность 736 737 -0.8 83% +7.6° 600 м - - - -
Суббота, 22 Сентября
Время местн. Темп Ветер Видим Явления Облачность нижн/средн/верх Атм. давл. Влжн Точка росы ВНГО R Сост. почвы Tg s
Напр Скр Прв ур.ст ур.м изм
21:00 +10.7° Ю,Ю-З 5 7 4 км слабый ливневый дождь облачно 737 738 -0.2 92% +9.5° 300 м 2 - - -
18:00 +11.2° В 5 7 4 км дымка облачно 737 738 -1.8 94% +10.3° 200 м - - - -
12:00 +10.1° Ю-В 3 4 10 км слабый непрерывный дождь {ливневые осадки} облачно 741 742 -1.3 89% +8.4° - - - - -
06:00 +9.3° Ю,Ю-З 7 10 50 км - преимущественно облачно 743 743 -0.3 79% +5.8° 600 м - - - -
03:00 +9.2° Ю,Ю-З 9 12 50 км - переменная облачность 743 744 +0.1 76% +5.2° 600 м - - - -
00:00 +9.8° Ю,Ю-З 9 12 50 км - незначительная облачность 743 744 +0.6 71% +4.8° 600 м - - - -
Пятница, 21 Сентября
Время местн. Темп Ветер Видим Явления Облачность нижн/средн/верх Атм. давл. Влжн Точка росы ВНГО R Сост. почвы Tg s
Напр Скр Прв ур.ст ур.м изм
21:00 +10.7° Ю,Ю-З 7 10 50 км - незначительная облачность 743 743 +0.6 68% +5° 600 м 0 - - -
18:00 +12.2° Ю,Ю-З 5 8 50 км - преимущественно облачно 742 743 +1.1 70% +6.9° 600 м - - - -
15:00 +12° Ю-З 9 12 50 км - преимущественно облачно 741 741 +1.9 68% +6.3° 600 м - - - -
12:00 +10.7° Ю,Ю-З 8 11 50 км - облачно с прояснениями 739 740 +1.4 71% +5.7° 600 м - - - -
09:00 +9.5° Ю-З 9 12 50 км - преимущественно облачно 738 738 +1.2 78% +5.9° 600 м 4 Сырая (есть малые или большие лужи) - -
06:00 +9.1° Ю,Ю-З 8 11 20 км - облачно 736 737 +0.5 84% +6.5° 300 м - - - -
03:00 +10.2° Ю,Ю-З 8 11 20 км небо без изменений {ливневые осадки} облачно 736 737 -0.4 85% +7.8° 600 м - - - -
00:00 +11.2° Ю 6 8 4 км умеренный или сильный ливневый дождь облачно 736 737 -2.3 92% +9.9° 600 м - - - -
Четверг, 20 Сентября
Время местн. Темп Ветер Видим Явления Облачность нижн/средн/верх Атм. давл. Влжн Точка росы ВНГО R Сост. почвы Tg s
Напр Скр Прв ур.ст ур.м изм
21:00 +11.2° Ю 9 13 10 км слабый ливневый дождь преимущественно облачно 739 739 -3.8 88% +9.3° 600 м 2 - - -
18:00 +10.1° Ю-В 6 10 10 км слабый ливневый дождь облачно 742 743 -3.4 85% +7.7° 300 м - - - -